createdAt,value
2019-01-09T00:01:07.982Z,86.50
2019-01-09T00:06:09.294Z,88.90
2019-01-09T00:11:10.756Z,90.00
2019-01-09T00:16:12.201Z,93.90
2019-01-09T00:21:13.779Z,93.90
2019-01-09T00:26:15.117Z,93.40
2019-01-09T00:31:16.349Z,93.50
2019-01-09T00:36:17.696Z,92.60
2019-01-09T00:41:18.933Z,91.70
2019-01-09T00:46:20.155Z,92.80
2019-01-09T00:51:21.593Z,93.60
2019-01-09T00:56:23.026Z,95.70
2019-01-09T01:01:24.455Z,97.70
2019-01-09T01:06:37.347Z,97.60
2019-01-09T01:11:56.435Z,97.40
2019-01-09T01:17:41.083Z,96.90
2019-01-09T01:23:12.550Z,95.70
2019-01-09T01:28:26.446Z,95.40
2019-01-09T01:33:39.446Z,94.80
2019-01-09T01:39:14.960Z,93.50
2019-01-09T01:44:30.918Z,93.50
2019-01-09T01:49:46.820Z,93.30
2019-01-09T01:55:14.374Z,92.30
2019-01-09T02:00:30.187Z,93.40
2019-01-09T02:05:39.826Z,93.30
2019-01-09T02:11:03.793Z,90.60
2019-01-09T02:16:27.508Z,89.30
2019-01-09T02:21:55.595Z,90.40
2019-01-09T02:27:05.311Z,89.10
2019-01-09T02:32:29.287Z,88.40
2019-01-09T02:37:30.618Z,88.00
2019-01-09T02:42:31.844Z,86.50
2019-01-09T02:47:33.106Z,88.80
2019-01-09T02:52:34.311Z,89.20
2019-01-09T02:57:35.552Z,88.60
2019-01-09T03:02:36.804Z,88.80
2019-01-09T03:07:38.038Z,90.90
2019-01-09T03:12:39.292Z,93.00
2019-01-09T03:17:40.539Z,94.00
2019-01-09T03:22:41.759Z,93.30
2019-01-09T03:27:42.990Z,94.60
2019-01-09T03:32:44.927Z,95.30
2019-01-09T03:37:46.138Z,95.10
2019-01-09T03:42:47.397Z,96.50
2019-01-09T03:47:48.764Z,94.40
2019-01-09T03:52:50.006Z,93.50
2019-01-09T03:57:51.425Z,96.90
2019-01-09T04:02:52.671Z,99.90
2019-01-09T04:07:53.914Z,99.90
2019-01-09T04:12:55.179Z,99.90
2019-01-09T04:17:56.426Z,99.90
2019-01-09T04:22:57.675Z,99.90
2019-01-09T04:27:58.956Z,99.90
2019-01-09T04:33:00.192Z,99.90
2019-01-09T04:38:01.428Z,99.90
2019-01-09T04:43:02.652Z,99.90
2019-01-09T04:48:03.897Z,99.90
2019-01-09T04:53:05.183Z,99.90
2019-01-09T04:58:06.415Z,99.90
2019-01-09T05:03:07.661Z,99.90
2019-01-09T05:08:08.902Z,99.90
2019-01-09T05:13:10.170Z,99.90
2019-01-09T05:18:11.422Z,99.90
2019-01-09T05:23:12.646Z,99.90
2019-01-09T05:28:13.946Z,99.90
2019-01-09T05:33:15.186Z,99.90
2019-01-09T05:38:16.422Z,99.90
2019-01-09T05:43:17.662Z,99.90
2019-01-09T05:48:18.935Z,99.90
2019-01-09T05:53:20.173Z,98.20
2019-01-09T05:58:21.423Z,98.00
2019-01-09T06:03:22.692Z,98.00
2019-01-09T06:08:23.929Z,98.40
2019-01-09T06:13:25.173Z,98.50
2019-01-09T06:18:26.414Z,97.10
2019-01-09T06:23:27.655Z,96.90
2019-01-09T06:28:28.899Z,92.80
2019-01-09T06:33:30.145Z,90.30
2019-01-09T06:38:31.402Z,91.10
2019-01-09T06:43:32.634Z,90.80
2019-01-09T06:48:33.929Z,90.60
2019-01-09T06:53:35.252Z,93.00
2019-01-09T06:58:36.501Z,91.80
2019-01-09T07:03:37.740Z,93.70
2019-01-09T07:08:38.980Z,92.90
2019-01-09T07:13:40.227Z,90.50
2019-01-09T07:18:41.504Z,90.30
2019-01-09T07:23:42.750Z,92.60
2019-01-09T07:28:43.998Z,89.80
2019-01-09T07:33:45.251Z,92.70
2019-01-09T07:38:46.508Z,86.30
2019-01-09T07:43:47.873Z,88.90
2019-01-09T07:48:49.148Z,88.70
2019-01-09T07:53:50.398Z,88.00
2019-01-09T07:58:51.631Z,87.30
2019-01-09T08:03:53.079Z,90.00
2019-01-09T08:08:54.339Z,88.00
2019-01-09T08:13:55.577Z,88.60
2019-01-09T08:18:56.832Z,91.00
2019-01-09T08:23:58.083Z,90.00
2019-01-09T08:28:59.309Z,89.50
2019-01-09T08:34:00.593Z,92.80
2019-01-09T08:39:04.148Z,94.70
2019-01-09T08:44:05.419Z,92.50
2019-01-09T08:49:06.647Z,94.50
2019-01-09T08:54:07.888Z,94.10
2019-01-09T08:59:09.123Z,94.20
2019-01-09T09:04:10.360Z,88.50
2019-01-09T09:09:13.383Z,89.40
2019-01-09T09:14:14.702Z,89.60
2019-01-09T09:19:16.027Z,86.80
2019-01-09T09:24:17.413Z,88.30
2019-01-09T09:29:18.768Z,86.70
2019-01-09T09:34:20.100Z,87.80
2019-01-09T09:39:21.424Z,85.50
2019-01-09T09:44:22.745Z,89.90
2019-01-09T09:49:23.994Z,88.90
2019-01-09T09:54:25.363Z,88.10
2019-01-09T09:59:26.605Z,87.50
2019-01-09T10:04:27.827Z,90.40
2019-01-09T10:09:29.095Z,91.80
2019-01-09T10:14:30.342Z,89.50
2019-01-09T10:19:31.710Z,90.80
2019-01-09T10:24:32.966Z,88.40
2019-01-09T10:29:34.201Z,86.10
2019-01-09T10:34:35.444Z,84.80
2019-01-09T10:39:36.706Z,83.00
2019-01-09T10:44:37.943Z,83.80
2019-01-09T10:49:39.144Z,87.30
2019-01-09T10:54:40.422Z,86.00
2019-01-09T10:59:41.675Z,86.40
2019-01-09T11:04:42.952Z,88.20
2019-01-09T11:09:44.202Z,87.20
2019-01-09T11:14:45.441Z,85.90
2019-01-09T11:19:46.778Z,86.70
2019-01-09T11:24:48.011Z,78.20
2019-01-09T11:29:49.261Z,82.00
2019-01-09T11:34:50.501Z,83.40
2019-01-09T11:39:51.746Z,75.60
2019-01-09T11:44:52.989Z,80.40
2019-01-09T11:49:54.236Z,73.50
2019-01-09T11:54:55.518Z,79.60
2019-01-09T11:59:56.766Z,74.40
2019-01-09T12:04:58.015Z,74.40
2019-01-09T12:09:59.256Z,78.50
2019-01-09T12:15:00.504Z,76.40
2019-01-09T12:20:02.750Z,76.00
2019-01-09T12:25:06.796Z,79.30
2019-01-09T12:30:22.499Z,73.90
2019-01-09T12:35:24.230Z,75.00
2019-01-09T12:40:25.492Z,72.60
2019-01-09T12:45:26.729Z,72.30
2019-01-09T12:50:28.078Z,71.30
2019-01-09T12:55:29.376Z,70.70
2019-01-09T13:00:30.822Z,68.50
2019-01-09T13:05:32.071Z,67.00
2019-01-09T13:10:33.422Z,66.00
2019-01-09T13:15:34.671Z,68.90
2019-01-09T13:20:35.953Z,64.10
2019-01-09T13:25:37.198Z,63.00
2019-01-09T13:30:38.511Z,67.50
2019-01-09T13:35:39.761Z,64.70
2019-01-09T13:40:40.997Z,65.10
2019-01-09T13:45:42.264Z,64.90
2019-01-09T13:50:43.499Z,63.30
2019-01-09T13:55:44.767Z,66.30
2019-01-09T14:00:46.014Z,67.20
2019-01-09T14:05:47.258Z,70.50
2019-01-09T14:10:48.501Z,70.90
2019-01-09T14:15:49.751Z,70.30
2019-01-09T14:20:51.026Z,71.80
2019-01-09T14:25:52.276Z,71.00
2019-01-09T14:30:53.519Z,72.00
2019-01-09T14:35:54.800Z,71.30
2019-01-09T14:40:56.154Z,71.50
2019-01-09T14:45:57.387Z,70.80
2019-01-09T14:50:59.509Z,71.30
2019-01-09T14:56:00.857Z,67.50
2019-01-09T15:01:02.506Z,71.00
2019-01-09T15:06:03.956Z,71.50
2019-01-09T15:11:05.204Z,71.80
2019-01-09T15:16:06.455Z,71.40
2019-01-09T15:21:07.686Z,71.90
2019-01-09T15:26:09.051Z,71.70
2019-01-09T15:31:10.290Z,71.90
2019-01-09T15:36:11.682Z,71.20
2019-01-09T15:41:12.915Z,69.80
2019-01-09T15:46:14.159Z,70.40
2019-01-09T15:51:15.401Z,70.60
2019-01-09T15:56:16.672Z,67.80
2019-01-09T16:01:17.913Z,70.80
2019-01-09T16:06:19.154Z,66.90
2019-01-09T16:11:20.407Z,70.10
2019-01-09T16:16:21.656Z,66.50
2019-01-09T16:21:22.910Z,68.70
2019-01-09T16:26:24.210Z,67.80
2019-01-09T16:31:25.459Z,71.10
2019-01-09T16:36:26.711Z,70.50
2019-01-09T16:41:27.954Z,71.50
2019-01-09T16:46:29.310Z,69.80
2019-01-09T16:51:30.540Z,71.60
2019-01-09T16:56:31.773Z,71.90
2019-01-09T17:01:32.991Z,72.20
2019-01-09T17:06:34.247Z,70.90
2019-01-09T17:11:35.490Z,71.90
2019-01-09T17:16:36.739Z,72.10
2019-01-09T17:21:38.000Z,72.00
2019-01-09T17:26:39.263Z,71.90
2019-01-09T17:31:40.507Z,72.10
2019-01-09T17:36:41.783Z,71.50
2019-01-09T17:41:43.015Z,71.30
2019-01-09T17:46:44.291Z,68.90
2019-01-09T17:51:45.523Z,63.40
2019-01-09T17:56:46.749Z,68.00
2019-01-09T18:01:48.000Z,67.20
2019-01-09T18:06:49.273Z,69.00
2019-01-09T18:11:50.514Z,70.90
2019-01-09T18:16:51.752Z,71.70
2019-01-09T18:21:52.984Z,71.70
2019-01-09T18:26:54.631Z,72.60
2019-01-09T18:32:16.693Z,71.50
2019-01-09T18:37:29.125Z,72.10
2019-01-09T18:42:50.412Z,72.50
2019-01-09T18:48:15.830Z,71.90
2019-01-09T18:53:20.238Z,71.40
2019-01-09T18:58:21.998Z,68.00
2019-01-09T19:03:23.268Z,66.80
2019-01-09T19:08:24.721Z,65.60
2019-01-09T19:13:25.967Z,66.40
2019-01-09T19:18:27.226Z,68.60
2019-01-09T19:23:28.582Z,70.00
2019-01-09T19:28:29.945Z,67.40
2019-01-09T19:33:31.218Z,67.90
2019-01-09T19:38:32.471Z,69.20
2019-01-09T19:43:33.803Z,69.80
2019-01-09T19:48:35.026Z,70.30
2019-01-09T19:53:36.345Z,69.40
2019-01-09T19:58:37.692Z,71.70
2019-01-09T20:03:39.076Z,70.50
2019-01-09T20:08:40.552Z,70.50
2019-01-09T20:13:42.139Z,71.40
2019-01-09T20:18:43.598Z,72.30
2019-01-09T20:23:44.915Z,72.80
2019-01-09T20:28:46.342Z,73.10
2019-01-09T20:33:47.714Z,76.80
2019-01-09T20:38:49.129Z,77.70
2019-01-09T20:43:50.485Z,79.50
2019-01-09T20:48:52.403Z,80.20
2019-01-09T20:53:53.859Z,78.90
2019-01-09T20:58:55.109Z,80.00
2019-01-09T21:03:56.541Z,79.70
2019-01-09T21:08:59.834Z,79.70
2019-01-09T21:14:01.155Z,79.20
2019-01-09T21:19:02.690Z,78.10
2019-01-09T21:24:05.882Z,77.40
2019-01-09T21:29:07.116Z,78.70
2019-01-09T21:34:08.359Z,77.70
2019-01-09T21:39:09.886Z,77.40
2019-01-09T21:44:16.130Z,75.90
2019-01-09T21:49:14.782Z,75.00
2019-01-09T21:54:16.036Z,73.50
2019-01-09T21:59:17.267Z,74.50
2019-01-09T22:04:18.633Z,72.90
2019-01-09T22:09:19.913Z,72.80
2019-01-09T22:14:21.155Z,73.20
2019-01-09T22:19:22.383Z,73.00
2019-01-09T22:24:23.662Z,74.70
2019-01-09T22:29:24.907Z,73.20
2019-01-09T22:34:26.128Z,73.50
2019-01-09T22:39:27.486Z,73.20
2019-01-09T22:44:28.695Z,73.60
2019-01-09T22:49:29.947Z,76.80
2019-01-09T22:54:36.248Z,73.80
2019-01-09T22:59:34.348Z,73.00
2019-01-09T23:04:35.596Z,73.00
2019-01-09T23:09:37.049Z,72.40
2019-01-09T23:14:38.420Z,73.90
2019-01-09T23:19:39.655Z,73.60
2019-01-09T23:24:40.897Z,72.20
2019-01-09T23:29:42.224Z,72.50
2019-01-09T23:34:43.559Z,72.90
2019-01-09T23:39:44.921Z,72.50
2019-01-09T23:44:46.149Z,71.90
2019-01-09T23:49:47.423Z,74.20
2019-01-09T23:54:48.684Z,72.90
2019-01-09T23:59:49.932Z,72.70
